Time;durP1;ratioP1;P1;durP2;ratioP2;P2;SDS_P1;SDS_P2;PMS_P1;PMS_P2;Temp;Humidity;BMP_temperature;BMP_pressure;BME280_temperature;BME280_humidity;BME280_pressure;Samples;Min_cycle;Max_cycle;Signal;HPM_P1;HPM_P2
2022/04/30 00:02:08;;;;;;;6.43;4.53;;;8.00;99.90;;;;;;5066743;28;20491;-82
2022/04/30 00:04:38;;;;;;;9.57;5.30;;;8.00;99.90;;;;;;5028219;28;20383;-83
2022/04/30 00:07:03;;;;;;;6.85;4.90;;;8.00;99.90;;;;;;5066527;28;20383;-83
2022/04/30 00:09:30;;;;;;;7.33;4.93;;;8.00;99.90;;;;;;5050658;28;20419;-82
2022/04/30 00:11:56;;;;;;;6.70;4.70;;;8.00;99.90;;;;;;5066201;28;20418;-82
2022/04/30 00:14:22;;;;;;;8.35;5.43;;;8.00;99.90;;;;;;5065873;28;20441;-83
2022/04/30 00:16:48;;;;;;;6.97;4.37;;;8.00;99.90;;;;;;5049571;28;20897;-82
2022/04/30 00:19:13;;;;;;;7.28;4.93;;;7.90;99.90;;;;;;5051371;28;20372;-82
2022/04/30 00:21:39;;;;;;;7.70;3.80;;;8.00;99.90;;;;;;5066302;28;20530;-84
2022/04/30 00:24:05;;;;;;;6.43;3.50;;;8.10;99.90;;;;;;5049516;28;20400;-82
2022/04/30 00:26:31;;;;;;;7.32;3.78;;;8.30;99.90;;;;;;5050608;28;20384;-82
2022/04/30 00:28:57;;;;;;;6.78;3.35;;;8.40;99.90;;;;;;5066303;28;20411;-82
2022/04/30 00:31:22;;;;;;;6.82;3.60;;;8.40;99.90;;;;;;5033189;28;20458;-83
2022/04/30 00:33:48;;;;;;;6.07;3.47;;;8.70;99.90;;;;;;5050781;28;20372;-82
2022/04/30 00:36:15;;;;;;;6.10;4.00;;;8.90;99.90;;;;;;5049339;28;20882;-83
2022/04/30 00:38:41;;;;;;;8.43;4.05;;;9.00;99.90;;;;;;5049883;28;20391;-83
2022/04/30 00:41:08;;;;;;;5.60;3.47;;;8.90;99.90;;;;;;5065597;28;20453;-83
2022/04/30 00:43:51;;;;;;;8.25;3.92;;;8.80;99.90;;;;;;5065319;28;20376;-83
2022/04/30 00:46:23;;;;;;;5.43;3.50;;;8.70;99.90;;;;;;5049168;28;20936;-82
2022/04/30 00:48:50;;;;;;;6.63;3.45;;;8.60;99.90;;;;;;5050070;28;20407;-83
2022/04/30 00:51:19;;;;;;;7.43;4.72;;;8.60;99.90;;;;;;5065033;28;20376;-83
2022/04/30 00:53:50;;;;;;;27.55;6.18;;;8.50;99.90;;;;;;5065013;28;20502;-83
2022/04/30 00:56:31;;;;;;;13.15;4.43;;;8.50;99.90;;;;;;5050027;28;20384;-83
2022/04/30 00:59:02;;;;;;;12.45;3.80;;;8.50;99.90;;;;;;5048777;28;20406;-83
2022/04/30 01:01:31;;;;;;;5.33;3.10;;;8.70;99.90;;;;;;5065411;28;20376;-83
2022/04/30 01:03:56;;;;;;;7.10;3.35;;;8.90;99.90;;;;;;5065294;28;20388;-82
2022/04/30 01:06:33;;;;;;;5.75;3.30;;;9.20;99.90;;;;;;5065712;28;20374;-82
2022/04/30 01:08:59;;;;;;;9.40;3.63;;;9.10;99.90;;;;;;5048522;28;20434;-82
2022/04/30 01:11:25;;;;;;;8.70;3.08;;;9.00;99.90;;;;;;5065826;28;20384;-82
2022/04/30 01:13:50;;;;;;;9.17;3.03;;;8.90;99.90;;;;;;5049543;28;20947;-83
2022/04/30 01:16:17;;;;;;;6.90;3.10;;;8.80;99.90;;;;;;5048685;28;20380;-83
2022/04/30 01:18:43;;;;;;;9.63;3.17;;;8.90;99.90;;;;;;5064826;28;20376;-83
2022/04/30 01:21:11;;;;;;;6.47;3.17;;;9.00;99.90;;;;;;5048631;28;20766;-83
2022/04/30 01:23:40;;;;;;;6.40;3.40;;;8.90;99.90;;;;;;5064442;28;20866;-82
2022/04/30 01:26:09;;;;;;;5.68;3.20;;;9.00;99.90;;;;;;5049817;28;20409;-82
2022/04/30 01:28:35;;;;;;;7.15;3.22;;;8.90;99.90;;;;;;5049516;28;20391;-82
2022/04/30 01:31:00;;;;;;;5.43;3.17;;;8.90;99.90;;;;;;5049220;28;20376;-83
2022/04/30 01:38:58;;;;;;;7.00;3.03;;;8.80;99.90;;;;;;5049699;28;20813;-84
2022/04/30 01:41:24;;;;;;;7.28;3.22;;;8.90;99.90;;;;;;5049230;28;20376;-82
2022/04/30 01:43:50;;;;;;;5.90;3.30;;;9.10;99.90;;;;;;5049123;28;20372;-83
2022/04/30 01:46:16;;;;;;;5.28;3.30;;;9.10;99.90;;;;;;5064696;28;20448;-83
2022/04/30 01:48:42;;;;;;;7.85;3.33;;;9.20;99.90;;;;;;5047665;28;20404;-82
2022/04/30 01:51:07;;;;;;;8.85;3.10;;;9.20;99.90;;;;;;5048266;28;20372;-83
2022/04/30 01:53:36;;;;;;;7.13;3.20;;;9.10;99.90;;;;;;5064537;28;20404;-83
2022/04/30 01:56:01;;;;;;;5.78;3.20;;;9.10;99.90;;;;;;5064589;28;20420;-83
2022/04/30 01:58:27;;;;;;;5.43;3.60;;;9.00;99.90;;;;;;5047807;28;20376;-83
2022/04/30 02:00:53;;;;;;;10.23;3.83;;;8.90;99.90;;;;;;5047652;28;20387;-82
2022/04/30 02:03:29;;;;;;;7.28;3.50;;;8.80;99.90;;;;;;5063176;28;20398;-83
2022/04/30 02:05:55;;;;;;;7.88;3.70;;;8.80;99.90;;;;;;5046811;28;20384;-83
2022/04/30 02:08:22;;;;;;;6.07;3.15;;;8.80;99.90;;;;;;5064290;28;20387;-83
2022/04/30 02:10:49;;;;;;;5.25;3.10;;;8.70;99.90;;;;;;5062853;28;20412;-83
2022/04/30 02:13:18;;;;;;;6.43;3.40;;;8.80;99.90;;;;;;5064415;28;20368;-83
2022/04/30 02:15:45;;;;;;;6.35;3.38;;;8.70;99.90;;;;;;5047367;28;20419;-83
2022/04/30 02:18:15;;;;;;;5.18;3.10;;;8.70;99.90;;;;;;5064352;28;20414;-82
2022/04/30 02:20:44;;;;;;;6.68;3.60;;;8.70;99.90;;;;;;5048329;28;20392;-82
2022/04/30 02:23:11;;;;;;;4.18;3.17;;;8.60;99.90;;;;;;5064184;28;20510;-85
2022/04/30 02:25:37;;;;;;;7.38;3.53;;;8.60;99.90;;;;;;5063409;28;20479;-83
2022/04/30 02:28:05;;;;;;;6.22;3.38;;;8.60;99.90;;;;;;5063922;28;20384;-84
2022/04/30 02:30:35;;;;;;;6.53;3.75;;;8.50;99.90;;;;;;5064019;28;20947;-84
2022/04/30 02:33:12;;;;;;;7.30;3.70;;;8.50;99.90;;;;;;5064042;28;20955;-83
2022/04/30 02:35:41;;;;;;;6.65;3.80;;;8.40;99.90;;;;;;5048596;28;20809;-83
2022/04/30 02:38:10;;;;;;;4.80;3.38;;;8.40;99.90;;;;;;5063913;28;20423;-83
2022/04/30 02:40:37;;;;;;;8.18;4.05;;;8.40;99.90;;;;;;5047041;28;20399;-83
2022/04/30 02:43:06;;;;;;;6.63;3.80;;;8.50;99.90;;;;;;5063932;28;20470;-83
2022/04/30 02:45:35;;;;;;;5.40;3.67;;;8.50;99.90;;;;;;5048403;28;20394;-84
2022/04/30 02:48:02;;;;;;;8.15;3.78;;;8.50;99.90;;;;;;5047389;28;20475;-84
2022/04/30 02:50:28;;;;;;;7.47;3.50;;;8.40;99.90;;;;;;5046997;28;20465;-83
2022/04/30 02:52:55;;;;;;;7.85;3.92;;;8.30;99.90;;;;;;5048109;28;20371;-83
2022/04/30 02:55:22;;;;;;;8.00;4.10;;;8.20;99.90;;;;;;5047774;28;20423;-84
2022/04/30 03:00:47;;;;;;;7.13;3.67;;;8.10;99.90;;;;;;5047962;28;20391;-83
2022/04/30 03:03:14;;;;;;;6.30;3.58;;;8.00;99.90;;;;;;5048115;28;20367;-84
2022/04/30 03:05:43;;;;;;;7.65;3.63;;;8.00;99.90;;;;;;5063371;28;20386;-83
2022/04/30 03:08:29;;;;;;;5.90;3.90;;;7.90;99.90;;;;;;5064022;28;20618;-84
2022/04/30 03:10:56;;;;;;;7.13;3.63;;;7.90;99.90;;;;;;5062443;28;20914;-83
2022/04/30 03:13:24;;;;;;;6.47;4.07;;;7.90;99.90;;;;;;5046482;28;20456;-83
2022/04/30 03:15:51;;;;;;;8.50;3.97;;;7.90;99.90;;;;;;5049932;28;20388;-84
2022/04/30 03:23:47;;;;;;;9.60;4.13;;;8.00;99.90;;;;;;5051808;28;20711;-83
2022/04/30 03:26:15;;;;;;;7.75;4.00;;;8.00;99.90;;;;;;5051491;28;20396;-84
2022/04/30 03:28:42;;;;;;;9.05;4.57;;;8.10;99.90;;;;;;5051620;28;20376;-83
2022/04/30 03:31:10;;;;;;;8.77;4.28;;;8.10;99.90;;;;;;5051656;28;20439;-84
2022/04/30 03:33:37;;;;;;;6.00;3.97;;;8.10;99.90;;;;;;5066866;28;20926;-83
2022/04/30 03:36:03;;;;;;;6.57;3.70;;;8.10;99.90;;;;;;5051427;28;20376;-84
2022/04/30 03:38:29;;;;;;;5.60;3.60;;;8.00;99.90;;;;;;5066971;28;20380;-83
2022/04/30 03:40:55;;;;;;;7.45;4.13;;;7.90;99.90;;;;;;5051144;28;20445;-84
2022/04/30 03:43:21;;;;;;;7.55;4.07;;;7.80;99.90;;;;;;5050014;28;20375;-83
2022/04/30 03:45:48;;;;;;;10.00;4.53;;;7.70;99.90;;;;;;5051170;28;20376;-83
2022/04/30 03:48:14;;;;;;;6.95;4.18;;;7.70;99.90;;;;;;5051576;28;20376;-83
2022/04/30 03:50:41;;;;;;;8.18;4.30;;;7.60;99.90;;;;;;5066561;28;20417;-83
2022/04/30 03:53:08;;;;;;;7.45;4.55;;;7.60;99.90;;;;;;5051483;28;20872;-83
2022/04/30 03:55:34;;;;;;;7.13;4.45;;;7.60;99.90;;;;;;5066118;28;20396;-83
2022/04/30 03:58:00;;;;;;;7.63;4.47;;;7.70;99.90;;;;;;5066380;28;20920;-83
2022/04/30 04:00:26;;;;;;;6.03;4.40;;;7.60;99.90;;;;;;5050918;28;20383;-83
2022/04/30 04:02:54;;;;;;;7.50;4.30;;;7.60;99.90;;;;;;5050804;28;20372;-84
2022/04/30 04:05:20;;;;;;;6.22;4.20;;;7.60;99.90;;;;;;5049665;28;20435;-83
2022/04/30 04:07:46;;;;;;;7.17;4.80;;;7.50;99.90;;;;;;5051314;28;20375;-82
2022/04/30 04:10:12;;;;;;;7.70;4.30;;;7.50;99.90;;;;;;5065692;28;20396;-83
2022/04/30 04:12:39;;;;;;;8.37;4.70;;;7.50;99.90;;;;;;5066314;28;20421;-83
2022/04/30 04:17:50;;;;;;;8.27;4.20;;;7.50;99.90;;;;;;5051025;28;20434;-84
2022/04/30 04:20:18;;;;;;;6.38;3.95;;;7.50;99.90;;;;;;5049131;28;20387;-82
2022/04/30 04:22:44;;;;;;;7.25;3.80;;;7.50;99.90;;;;;;5051120;28;20375;-82
2022/04/30 04:27:55;;;;;;;5.85;4.10;;;7.50;99.90;;;;;;5050591;28;20382;-83
2022/04/30 04:30:26;;;;;;;7.53;4.40;;;7.50;99.90;;;;;;5050624;28;20506;-83
2022/04/30 04:32:52;;;;;;;8.60;4.55;;;7.50;99.90;;;;;;5065452;28;20386;-83
2022/04/30 04:35:17;;;;;;;8.68;4.60;;;7.60;99.90;;;;;;5050711;28;20463;-83
2022/04/30 04:37:44;;;;;;;8.07;4.53;;;7.70;99.90;;;;;;5050676;28;20380;-83
2022/04/30 04:40:12;;;;;;;9.10;5.00;;;7.70;99.90;;;;;;5050306;28;20903;-83
2022/04/30 04:42:39;;;;;;;8.27;5.00;;;7.90;99.90;;;;;;5064640;28;20383;-83
2022/04/30 04:45:05;;;;;;;9.80;5.30;;;8.00;99.90;;;;;;5047231;28;20376;-83
2022/04/30 04:47:31;;;;;;;7.38;4.35;;;8.00;99.90;;;;;;5063638;28;20404;-83
2022/04/30 04:49:57;;;;;;;6.63;4.73;;;8.00;99.90;;;;;;5047917;28;20414;-82
2022/04/30 04:52:22;;;;;;;6.57;4.50;;;8.10;99.90;;;;;;5063202;28;20791;-82
2022/04/30 04:54:49;;;;;;;6.68;4.25;;;8.00;99.90;;;;;;5046823;28;20380;-82
2022/04/30 04:57:15;;;;;;;5.60;4.32;;;8.00;99.90;;;;;;5048828;28;20437;-82
2022/04/30 04:59:41;;;;;;;6.95;4.45;;;8.10;99.90;;;;;;5049008;28;20475;-83
2022/04/30 05:02:07;;;;;;;7.15;4.30;;;8.20;99.90;;;;;;5046371;28;20817;-83
2022/04/30 05:04:33;;;;;;;5.93;4.40;;;8.40;99.90;;;;;;5047579;28;20355;-83
2022/04/30 05:07:00;;;;;;;10.40;4.60;;;8.50;99.90;;;;;;5048475;28;20707;-83
2022/04/30 05:09:31;;;;;;;5.50;4.22;;;8.60;99.90;;;;;;5048508;28;20400;-82
2022/04/30 05:12:01;;;;;;;6.85;4.35;;;8.60;99.90;;;;;;5045653;28;20379;-82
2022/04/30 05:14:32;;;;;;;7.15;4.30;;;8.60;99.90;;;;;;5049518;28;20417;-83
2022/04/30 05:17:03;;;;;;;6.32;4.00;;;8.80;99.90;;;;;;5049975;28;20379;-84
2022/04/30 05:19:29;;;;;;;7.38;4.13;;;8.90;99.90;;;;;;5048644;28;20484;-84
2022/04/30 05:21:54;;;;;;;7.80;4.53;;;9.00;99.90;;;;;;5048498;28;20899;-84
2022/04/30 05:24:20;;;;;;;10.95;6.75;;;9.10;99.90;;;;;;5048601;28;20757;-83
2022/04/30 05:26:47;;;;;;;14.80;8.50;;;9.20;99.90;;;;;;5049045;28;20473;-84
2022/04/30 05:29:16;;;;;;;11.82;7.38;;;9.20;99.90;;;;;;5049736;28;20885;-84
2022/04/30 05:31:42;;;;;;;8.53;5.07;;;9.20;99.90;;;;;;5049754;28;20448;-84
2022/04/30 05:34:10;;;;;;;6.18;3.90;;;9.30;99.90;;;;;;5047466;28;20384;-83
2022/04/30 05:36:37;;;;;;;7.53;4.22;;;9.40;99.90;;;;;;5048294;28;20402;-83
2022/04/30 05:39:03;;;;;;;8.00;4.05;;;9.60;99.90;;;;;;5045920;28;20404;-85
2022/04/30 05:41:29;;;;;;;7.80;4.45;;;9.70;99.90;;;;;;5047423;28;20805;-83
2022/04/30 05:43:59;;;;;;;6.80;4.25;;;9.60;99.90;;;;;;5047511;28;20382;-84
2022/04/30 05:46:25;;;;;;;8.52;4.28;;;9.60;99.90;;;;;;5045256;28;20395;-83
2022/04/30 05:48:53;;;;;;;8.30;4.00;;;9.90;99.90;;;;;;5049181;28;20401;-83
2022/04/30 05:51:20;;;;;;;6.78;3.97;;;10.00;99.90;;;;;;5047332;28;20437;-84
2022/04/30 05:53:46;;;;;;;8.63;4.40;;;9.90;99.90;;;;;;5048888;28;20885;-83
2022/04/30 05:56:12;;;;;;;8.13;4.20;;;10.00;99.90;;;;;;5048335;28;20364;-84
2022/04/30 05:58:37;;;;;;;8.85;4.10;;;10.10;99.90;;;;;;5048111;28;20497;-83
2022/04/30 06:01:06;;;;;;;7.67;4.73;;;10.20;99.90;;;;;;5047371;28;20384;-84
2022/04/30 06:03:33;;;;;;;7.37;4.80;;;10.30;99.90;;;;;;5046385;28;20431;-84
2022/04/30 06:05:59;;;;;;;14.52;7.55;;;10.30;99.90;;;;;;5047237;28;20733;-83
2022/04/30 06:08:25;;;;;;;21.93;11.20;;;10.50;99.90;;;;;;5048811;28;20484;-84
2022/04/30 06:10:50;;;;;;;13.10;7.87;;;10.60;99.90;;;;;;5047298;28;20435;-83
2022/04/30 06:13:16;;;;;;;11.18;5.30;;;10.70;99.90;;;;;;5052504;28;20742;-84
2022/04/30 06:15:43;;;;;;;8.63;5.77;;;10.70;99.90;;;;;;5065609;28;20435;-82
2022/04/30 06:18:09;;;;;;;19.13;10.57;;;10.80;99.90;;;;;;5055258;28;20383;-84
2022/04/30 06:20:35;;;;;;;18.23;10.77;;;10.70;99.90;;;;;;5049062;28;20390;-84
2022/04/30 06:23:01;;;;;;;7.30;4.72;;;10.80;99.90;;;;;;5047443;28;20464;-83
2022/04/30 06:25:27;;;;;;;7.95;4.93;;;11.10;99.90;;;;;;5047518;28;20376;-83
2022/04/30 06:27:52;;;;;;;8.32;5.10;;;11.20;99.90;;;;;;5047035;28;20907;-83
2022/04/30 06:30:18;;;;;;;8.05;4.20;;;11.30;99.90;;;;;;5047060;28;20404;-83
2022/04/30 06:32:45;;;;;;;7.47;3.90;;;11.30;99.90;;;;;;5048279;28;20387;-83
2022/04/30 06:35:10;;;;;;;7.35;4.40;;;11.40;99.90;;;;;;5047004;28;20379;-84
2022/04/30 06:37:37;;;;;;;8.00;4.10;;;11.60;99.90;;;;;;5047369;28;20911;-83
2022/04/30 06:40:05;;;;;;;9.15;4.25;;;11.60;99.90;;;;;;5046981;28;20743;-83
2022/04/30 06:42:40;;;;;;;4.93;3.97;;;11.70;99.90;;;;;;5030818;28;20506;-83
2022/04/30 06:45:08;;;;;;;7.15;3.80;;;11.80;99.90;;;;;;5062607;28;20384;-84
2022/04/30 06:47:35;;;;;;;6.30;4.03;;;11.90;99.90;;;;;;5057761;28;20413;-84
2022/04/30 06:50:01;;;;;;;8.50;4.00;;;11.80;99.90;;;;;;5040351;28;20494;-83
2022/04/30 06:52:27;;;;;;;8.20;4.35;;;11.80;99.90;;;;;;5061886;28;20481;-84
2022/04/30 06:57:37;;;;;;;7.90;4.20;;;11.70;99.90;;;;;;5053036;28;20432;-84
2022/04/30 07:01:25;;;;;;;6.07;3.90;;;11.70;99.90;;;;;;5052290;28;20750;-84
2022/04/30 07:02:55;;;;;;;6.75;4.38;;;11.60;99.90;;;;;;5052178;28;20388;-83
2022/04/30 07:05:21;;;;;;;7.05;4.13;;;11.80;99.90;;;;;;5067307;28;20480;-83
2022/04/30 07:07:54;;;;;;;9.65;4.82;;;11.70;99.90;;;;;;5070932;28;20461;-85
2022/04/30 07:10:20;;;;;;;6.97;4.45;;;11.90;99.90;;;;;;5087801;28;20406;-83
2022/04/30 07:12:46;;;;;;;8.35;4.47;;;12.00;99.90;;;;;;5069675;28;20402;-83
2022/04/30 07:15:11;;;;;;;6.03;4.10;;;12.20;99.90;;;;;;5087818;28;20377;-84
2022/04/30 07:17:38;;;;;;;11.23;4.47;;;12.50;99.90;;;;;;5070755;28;20774;-83
2022/04/30 07:20:09;;;;;;;8.40;4.30;;;12.30;99.90;;;;;;5088062;28;20378;-83
2022/04/30 07:22:35;;;;;;;7.07;4.20;;;12.40;99.90;;;;;;5070811;28;20797;-84
2022/04/30 07:25:01;;;;;;;7.20;4.05;;;12.50;99.90;;;;;;5053977;28;20451;-83
2022/04/30 07:27:27;;;;;;;8.27;4.17;;;12.60;99.90;;;;;;5048993;28;21671;-83
2022/04/30 07:29:52;;;;;;;6.45;4.38;;;12.80;99.90;;;;;;5049166;28;20435;-83
2022/04/30 07:32:18;;;;;;;7.70;4.30;;;13.00;99.90;;;;;;5048718;28;20438;-83
2022/04/30 10:20:36;;;;;;;9.10;4.27;;;17.90;99.90;;;;;;3033882;22;20477;-85
2022/04/30 10:23:19;;;;;;;6.65;4.40;;;17.60;99.90;;;;;;5011217;28;20505;-83
2022/04/30 10:25:49;;;;;;;7.03;4.40;;;17.60;99.90;;;;;;5025865;28;20469;-82
2022/04/30 10:28:19;;;;;;;7.13;4.05;;;17.70;99.90;;;;;;5000818;28;20464;-83
2022/04/30 10:30:57;;;;;;;10.15;4.32;;;17.80;99.90;;;;;;5005820;28;20405;-81
2022/04/30 10:33:23;;;;;;;7.85;4.10;;;18.20;99.90;;;;;;5002962;28;20412;-86
2022/04/30 10:35:49;;;;;;;7.03;4.93;;;18.40;97.40;;;;;;5002844;28;20395;-83
2022/04/30 10:38:20;;;;;;;9.20;4.65;;;17.90;94.30;;;;;;5029573;28;20407;-83
2022/04/30 10:40:47;;;;;;;6.88;4.10;;;17.70;94.00;;;;;;5028549;28;20431;-83
2022/04/30 10:43:36;;;;;;;10.18;4.80;;;17.90;93.90;;;;;;5039336;28;20380;-83
2022/04/30 10:46:13;;;;;;;6.10;4.28;;;17.70;93.30;;;;;;5030781;28;20861;-83
2022/04/30 10:48:39;;;;;;;7.25;4.20;;;17.90;94.90;;;;;;5040997;28;20379;-84
2022/04/30 10:51:07;;;;;;;7.23;4.27;;;18.10;93.40;;;;;;5026434;28;21064;-85
2022/04/30 10:53:34;;;;;;;7.05;4.20;;;18.20;93.10;;;;;;5027168;28;20387;-84
2022/04/30 10:56:02;;;;;;;7.40;4.33;;;18.40;93.20;;;;;;5011372;28;20478;-84
2022/04/30 10:58:34;;;;;;;9.95;4.20;;;18.70;93.70;;;;;;5025358;28;21608;-83
2022/04/30 11:01:13;;;;;;;9.35;4.07;;;18.30;92.40;;;;;;5026461;28;20724;-83
2022/04/30 11:03:41;;;;;;;7.60;4.20;;;18.20;93.40;;;;;;5006836;28;20452;-83
2022/04/30 11:06:11;;;;;;;6.93;4.00;;;18.20;92.70;;;;;;5006343;28;20393;-83
2022/04/30 11:08:39;;;;;;;8.82;3.85;;;18.00;92.90;;;;;;5008462;28;20436;-83
2022/04/30 11:11:05;;;;;;;7.63;3.95;;;18.00;92.90;;;;;;5006410;28;20416;-83
2022/04/30 11:13:42;;;;;;;8.73;4.20;;;18.10;92.30;;;;;;5038875;28;20975;-83
2022/04/30 11:16:14;;;;;;;5.80;3.58;;;18.00;93.00;;;;;;5025045;28;20391;-83
2022/04/30 11:18:39;;;;;;;7.97;4.00;;;18.00;92.30;;;;;;5030998;28;20385;-83
2022/04/30 11:21:05;;;;;;;6.57;4.03;;;18.30;91.20;;;;;;5004460;28;20406;-83
2022/04/30 11:23:31;;;;;;;8.68;4.25;;;18.10;91.90;;;;;;5018090;28;20397;-83
2022/04/30 11:25:56;;;;;;;7.57;4.10;;;18.10;91.90;;;;;;5029285;28;20687;-83
2022/04/30 11:28:29;;;;;;;8.32;4.32;;;18.40;92.00;;;;;;5027878;28;20380;-83
2022/04/30 11:30:59;;;;;;;8.05;3.88;;;18.40;91.10;;;;;;5014847;28;20439;-82
2022/04/30 11:33:33;;;;;;;7.30;4.10;;;18.60;91.60;;;;;;5030541;28;20486;-82
2022/04/30 11:35:59;;;;;;;7.32;3.78;;;18.80;90.90;;;;;;5031218;28;20397;-84
2022/04/30 11:38:24;;;;;;;5.78;3.30;;;18.60;90.30;;;;;;5020065;28;20458;-83
2022/04/30 11:40:50;;;;;;;4.47;3.10;;;18.60;91.10;;;;;;5022844;28;20424;-82
2022/04/30 11:43:24;;;;;;;8.77;4.30;;;18.90;89.70;;;;;;5012042;28;20481;-84
2022/04/30 11:45:59;;;;;;;7.68;3.80;;;18.90;89.40;;;;;;5014714;28;20405;-84
2022/04/30 11:48:27;;;;;;;7.55;3.65;;;19.10;89.50;;;;;;4995741;28;20408;-82
2022/04/30 11:50:54;;;;;;;6.05;3.85;;;19.10;86.70;;;;;;5019337;28;20416;-82
2022/04/30 11:53:20;;;;;;;7.32;3.60;;;18.90;86.50;;;;;;5011659;28;20896;-83
2022/04/30 11:55:45;;;;;;;6.28;3.83;;;19.00;87.30;;;;;;5011965;28;20389;-84
2022/04/30 11:58:11;;;;;;;7.45;3.60;;;19.00;89.60;;;;;;5013378;28;20454;-82
2022/04/30 12:00:38;;;;;;;6.57;3.50;;;19.50;90.20;;;;;;5017593;28;20389;-83
2022/04/30 12:03:04;;;;;;;7.15;3.58;;;19.90;86.40;;;;;;5032746;28;20916;-82
2022/04/30 12:05:31;;;;;;;7.55;3.30;;;19.90;85.90;;;;;;5040174;28;20547;-83
2022/04/30 12:08:00;;;;;;;6.10;3.40;;;19.80;85.70;;;;;;5028624;28;20397;-82
2022/04/30 12:10:27;;;;;;;8.13;4.07;;;20.00;84.50;;;;;;5048146;28;20511;-82
2022/04/30 12:12:54;;;;;;;8.07;3.55;;;20.20;86.30;;;;;;5039242;28;20387;-81
2022/04/30 12:15:25;;;;;;;6.30;3.63;;;20.40;80.70;;;;;;5059964;28;20485;-82
2022/04/30 12:27:03;;;;;;;8.27;3.53;;;19.80;81.60;;;;;;5060235;28;20501;-84
2022/04/30 12:29:32;;;;;;;6.38;3.35;;;20.00;82.00;;;;;;5045315;28;20419;-81
2022/04/30 12:32:02;;;;;;;5.13;3.13;;;20.00;80.80;;;;;;5027556;28;20423;-84
2022/04/30 12:34:28;;;;;;;5.65;3.65;;;20.00;80.60;;;;;;5044503;28;20554;-83
2022/04/30 12:37:00;;;;;;;7.50;3.40;;;20.00;80.10;;;;;;5044736;28;20994;-83
2022/04/30 12:39:27;;;;;;;6.35;3.00;;;20.20;81.20;;;;;;5041706;28;20430;-83
2022/04/30 12:41:57;;;;;;;6.32;3.45;;;20.30;78.00;;;;;;5042709;28;20383;-83
2022/04/30 12:44:23;;;;;;;9.00;4.10;;;20.00;80.10;;;;;;5040042;28;20949;-84
2022/04/30 12:46:52;;;;;;;6.68;3.33;;;19.60;79.80;;;;;;5039728;28;20400;-84
2022/04/30 12:49:18;;;;;;;6.22;3.40;;;19.70;80.60;;;;;;5059431;28;20391;-84
2022/04/30 12:51:45;;;;;;;7.37;3.40;;;19.80;80.30;;;;;;5041804;28;20889;-84
2022/04/30 12:54:13;;;;;;;6.50;3.13;;;19.90;79.00;;;;;;5040805;28;20467;-85
2022/04/30 12:56:40;;;;;;;5.03;3.30;;;20.00;80.50;;;;;;5037095;28;20889;-84
2022/04/30 12:59:06;;;;;;;6.63;3.42;;;20.20;78.60;;;;;;5040827;28;20394;-84
2022/04/30 13:01:37;;;;;;;6.20;3.40;;;20.30;80.80;;;;;;5057900;28;20380;-84
2022/04/30 13:04:03;;;;;;;6.93;3.20;;;20.70;79.60;;;;;;5059978;28;20388;-83
2022/04/30 13:06:30;;;;;;;8.57;3.38;;;21.00;78.30;;;;;;5041758;28;20476;-84
2022/04/30 13:14:28;;;;;;;5.53;3.50;;;20.90;80.40;;;;;;5041186;28;20952;-82
2022/04/30 13:16:53;;;;;;;5.03;3.30;;;20.80;79.20;;;;;;5038261;28;20494;-82
2022/04/30 13:19:19;;;;;;;4.83;3.30;;;20.90;84.80;;;;;;5037647;28;20374;-82
2022/04/30 13:21:49;;;;;;;5.35;3.17;;;21.20;84.70;;;;;;5038901;28;20428;-83
2022/04/30 13:24:16;;;;;;;5.27;3.10;;;21.70;82.40;;;;;;5040556;28;20973;-82
2022/04/30 13:26:42;;;;;;;5.15;3.50;;;;;;;;;;5022686;28;20400;-83
2022/04/30 13:29:11;;;;;;;7.53;3.50;;;21.60;71.40;;;;;;5021233;28;20401;-83
2022/04/30 13:31:38;;;;;;;6.38;2.92;;;21.60;73.90;;;;;;5024267;28;20381;-83
2022/04/30 13:34:04;;;;;;;7.22;2.78;;;21.60;73.60;;;;;;5019672;28;20394;-82
2022/04/30 13:36:33;;;;;;;5.35;3.28;;;21.20;71.60;;;;;;5015932;28;20459;-81
2022/04/30 13:39:05;;;;;;;5.35;3.30;;;20.90;73.20;;;;;;5033445;28;20401;-82
2022/04/30 13:41:30;;;;;;;5.82;3.40;;;20.80;73.40;;;;;;5034926;28;20751;-83
2022/04/30 13:43:56;;;;;;;4.63;3.13;;;20.80;75.00;;;;;;5019393;28;20369;-83
2022/04/30 13:46:22;;;;;;;4.70;3.50;;;21.00;76.10;;;;;;5022838;28;20392;-82
2022/04/30 13:48:49;;;;;;;4.00;3.00;;;21.00;72.30;;;;;;5037867;28;20378;-83
2022/04/30 13:51:24;;;;;;;5.53;3.22;;;20.90;73.20;;;;;;5020534;28;20401;-83
2022/04/30 13:53:50;;;;;;;4.30;3.00;;;20.80;72.80;;;;;;5019396;28;20413;-84
2022/04/30 13:56:22;;;;;;;8.17;3.70;;;20.60;76.10;;;;;;5036910;28;20374;-83
2022/04/30 13:58:47;;;;;;;6.05;3.67;;;20.60;72.90;;;;;;5016938;28;20394;-81
2022/04/30 14:01:13;;;;;;;5.20;3.20;;;20.70;72.50;;;;;;5038199;28;20381;-82
2022/04/30 14:03:40;;;;;;;6.90;3.63;;;20.80;71.60;;;;;;5022530;28;20405;-81
2022/04/30 14:06:06;;;;;;;4.50;3.33;;;20.80;73.20;;;;;;5038376;28;20398;-82
2022/04/30 14:08:32;;;;;;;5.60;3.40;;;;;;;;;;5045994;28;20396;-83
2022/04/30 14:10:58;;;;;;;6.70;3.38;;;;;;;;;;5061148;28;20833;-82
2022/04/30 14:16:08;;;;;;;6.40;3.45;;;;;;;;;;5061563;28;20383;-83
2022/04/30 14:18:35;;;;;;;5.65;2.90;;;;;;;;;;5042908;28;20440;-83
2022/04/30 14:21:08;;;;;;;6.07;2.80;;;;;;;;;;5025924;28;20457;-83
2022/04/30 14:23:36;;;;;;;8.70;3.03;;;;;;;;;;5041413;28;20404;-83
2022/04/30 14:26:03;;;;;;;5.17;2.90;;;21.80;67.60;;;;;;5037714;28;20395;-83
2022/04/30 14:28:29;;;;;;;4.15;2.72;;;21.50;69.70;;;;;;5035886;28;20372;-82
2022/04/30 14:30:55;;;;;;;6.80;3.20;;;21.40;70.60;;;;;;5057988;28;20422;-82
2022/04/30 14:33:24;;;;;;;4.78;2.70;;;;;;;;;;5047343;28;20380;-81
2022/04/30 14:35:53;;;;;;;4.88;2.80;;;;;;;;;;5064637;28;20371;-83
2022/04/30 14:38:20;;;;;;;5.38;3.28;;;;;;;;;;5043072;28;20908;-82
2022/04/30 14:40:47;;;;;;;3.88;2.38;;;;;;;;;;5058134;28;20360;-81
2022/04/30 14:43:13;;;;;;;5.82;2.83;;;;;;;;;;5042598;28;20394;-82
2022/04/30 14:45:40;;;;;;;5.07;2.80;;;;;;;;;;5040707;28;20379;-81
2022/04/30 14:48:06;;;;;;;4.95;2.80;;;;;;;;;;5040901;28;20448;-82
2022/04/30 14:50:33;;;;;;;6.18;2.70;;;;;;;;;;5043563;28;20415;-83
2022/04/30 14:52:59;;;;;;;6.45;3.20;;;;;;;;;;5056545;28;20380;-83
2022/04/30 14:55:26;;;;;;;9.35;2.92;;;;;;;;;;5059225;28;20467;-83
2022/04/30 14:57:52;;;;;;;19.33;4.20;;;;;;;;;;5058738;28;20380;-83
2022/04/30 15:00:18;;;;;;;6.95;2.70;;;;;;;;;;5056273;28;20394;-84
2022/04/30 15:02:45;;;;;;;4.43;2.42;;;;;;;;;;5035939;28;20388;-83
2022/04/30 15:05:14;;;;;;;5.18;2.65;;;;;;;;;;5036779;28;20375;-83
2022/04/30 15:07:40;;;;;;;5.10;2.58;;;;;;;;;;5033172;28;20709;-83
2022/04/30 15:10:08;;;;;;;318.42;38.75;;;;;;;;;;5039272;28;20410;-84
2022/04/30 15:12:40;;;;;;;5.63;2.90;;;;;;;;;;5027555;28;20678;-83
2022/04/30 15:15:06;;;;;;;8.95;3.15;;;;;;;;;;5028134;28;20390;-83
2022/04/30 15:17:33;;;;;;;4.68;2.72;;;;;;;;;;5027559;28;20377;-84
2022/04/30 15:20:03;;;;;;;4.45;2.40;;;;;;;;;;5027500;28;20385;-83
2022/04/30 15:22:29;;;;;;;5.95;3.00;;;;;;;;;;5027577;28;20480;-83
2022/04/30 15:24:55;;;;;;;5.70;2.60;;;;;;;;;;5027385;28;20393;-83
2022/04/30 15:27:21;;;;;;;6.15;2.30;;;;;;;;;;5029360;28;20382;-84
2022/04/30 15:29:47;;;;;;;4.97;2.80;;;;;;;;;;5046668;28;20397;-85
2022/04/30 15:32:31;;;;;;;5.95;3.05;;;;;;;;;;5030585;28;20362;-82
2022/04/30 15:34:57;;;;;;;6.88;2.85;;;;;;;;;;5024139;28;20388;-82
2022/04/30 15:37:23;;;;;;;4.68;2.47;;;;;;;;;;5021326;28;20386;-83
2022/04/30 15:39:49;;;;;;;4.55;2.53;;;;;;;;;;5026367;28;20404;-85
2022/04/30 15:42:15;;;;;;;5.15;2.47;;;;;;;;;;5023297;28;20389;-84
2022/04/30 15:44:41;;;;;;;4.93;2.90;;;;;;;;;;5036622;28;20464;-84
2022/04/30 15:52:37;;;;;;;5.95;2.45;;;;;;;;;;5044910;28;20373;-83
2022/04/30 15:55:04;;;;;;;6.85;2.60;;;;;;;;;;5023389;28;20976;-82
2022/04/30 15:57:30;;;;;;;4.40;2.45;;;;;;;;;;5024759;28;20385;-85
2022/04/30 15:59:59;;;;;;;5.43;2.78;;;;;;;;;;5046480;28;20385;-83
2022/04/30 16:02:25;;;;;;;6.28;3.03;;;;;;;;;;5047856;28;20894;-84
2022/04/30 16:04:51;;;;;;;6.07;2.75;;;;;;;;;;5029930;28;20386;-83
2022/04/30 16:07:17;;;;;;;3.25;2.22;;;;;;;;;;5041796;28;20417;-83
2022/04/30 16:09:43;;;;;;;5.93;2.53;;;;;;;;;;5055949;28;20407;-83
2022/04/30 16:12:11;;;;;;;5.25;2.53;;;;;;;;;;5040743;28;20468;-84
2022/04/30 16:14:37;;;;;;;6.60;2.70;;;;;;;;;;5044632;28;20384;-82
2022/04/30 16:17:03;;;;;;;6.13;2.80;;;;;;;;;;5064626;28;20406;-82
2022/04/30 16:19:29;;;;;;;6.55;2.50;;;;;;;;;;5045601;28;20753;-83
2022/04/30 16:21:56;;;;;;;6.85;2.50;;;;;;;;;;5036605;28;20955;-82
2022/04/30 16:24:22;;;;;;;4.45;2.70;;;;;;;;;;5054302;28;20364;-83
2022/04/30 16:26:50;;;;;;;6.75;3.10;;;;;;;;;;5057296;28;20403;-83
2022/04/30 16:29:16;;;;;;;6.70;3.25;;;;;;;;;;5038184;28;20386;-83
2022/04/30 16:31:42;;;;;;;6.37;3.10;;;;;;;;;;5059246;28;20436;-83
2022/04/30 16:34:15;;;;;;;5.18;2.70;;;;;;;;;;5045137;28;20383;-82
2022/04/30 16:36:41;;;;;;;6.10;2.70;;;;;;;;;;5032199;28;20368;-83
2022/04/30 16:39:08;;;;;;;5.68;2.60;;;;;;;;;;5056908;28;20382;-82
2022/04/30 16:41:36;;;;;;;5.60;2.70;;;;;;;;;;5037631;28;20448;-84
2022/04/30 16:44:04;;;;;;;7.93;3.22;;;;;;;;;;5038360;28;20960;-83